Terminal Aerodrome Forecast
Issued by NWS Quad Cities IA IL

Home | Current Version | Previous Version | Text Only | Print | Product List | Glossary On
Versions: 1 2 3 4 5 6 7 8 9 10 11 12 13 14
000
FTUS43 KDVN 200532
TAFDBQ
TAF
KDBQ 200532Z 2006/2106 15008KT P6SM BKN200
     FM200900 15010KT 5SM BR BKN200
     FM201300 16011KT 5SM BR OVC025
     FM201600 16015G22KT 6SM BR VCSH OVC015
     FM202200 17016G24KT 4SM SHRA VCTS OVC015CB
     FM210200 21011KT 3SM BR BKN025=

USA.gov is the U.S. government's official web portal to all federal, state and local government web resources and services.